Time;durP1;ratioP1;P1;durP2;ratioP2;P2;SDS_P1;SDS_P2;PMS_P1;PMS_P2;Temp;Humidity;BMP_temperature;BMP_pressure;BME280_temperature;BME280_humidity;BME280_pressure;Samples;Min_cycle;Max_cycle;Signal;HPM_P1;HPM_P2
2022/03/17 00:00:44;;;;;;;42.30;34.60;;;13.20;72.90;;;;;;10975150;32;20057;-72
2022/03/17 00:06:46;;;;;;;36.25;28.45;;;13.20;72.80;;;;;;10974917;32;20092;-72
2022/03/17 00:12:48;;;;;;;29.60;24.73;;;13.20;72.80;;;;;;10965768;32;20027;-72
2022/03/17 00:18:50;;;;;;;27.95;23.85;;;13.10;72.80;;;;;;10965592;32;20046;-72
2022/03/17 00:24:54;;;;;;;36.10;27.00;;;13.00;72.80;;;;;;10961405;32;20030;-72
2022/03/17 00:30:57;;;;;;;27.55;20.42;;;12.80;72.90;;;;;;10965429;32;20050;-72
2022/03/17 00:37:20;;;;;;;34.30;25.33;;;12.80;73.10;;;;;;10985095;32;20031;-72
2022/03/17 00:43:22;;;;;;;31.80;25.20;;;12.70;73.10;;;;;;10985649;32;20034;-73
2022/03/17 00:49:24;;;;;;;30.08;22.35;;;12.70;73.10;;;;;;10981373;32;20026;-72
2022/03/17 00:55:27;;;;;;;32.10;24.42;;;12.70;73.10;;;;;;10985222;32;20057;-72
2022/03/17 01:01:29;;;;;;;33.35;24.30;;;12.50;73.20;;;;;;10983560;32;20034;-73
2022/03/17 01:07:32;;;;;;;30.10;25.23;;;12.50;73.30;;;;;;10984759;32;20027;-73
2022/03/17 01:13:35;;;;;;;43.63;33.92;;;12.50;73.20;;;;;;10981518;32;20330;-73
2022/03/17 01:19:37;;;;;;;40.03;29.77;;;12.50;73.20;;;;;;10984354;32;20369;-73
2022/03/17 01:25:39;;;;;;;42.62;33.38;;;12.50;73.20;;;;;;10984117;32;20057;-73
2022/03/17 01:31:42;;;;;;;40.25;35.50;;;12.50;73.40;;;;;;10983905;32;20023;-73
2022/03/17 01:37:47;;;;;;;43.08;32.47;;;12.50;73.50;;;;;;10970382;32;20335;-72
2022/03/17 01:43:49;;;;;;;43.53;35.10;;;12.50;73.70;;;;;;10983044;32;20034;-72
2022/03/17 01:49:51;;;;;;;40.90;34.03;;;12.50;73.50;;;;;;10983207;32;20023;-72
2022/03/17 01:55:54;;;;;;;39.33;31.48;;;12.50;73.80;;;;;;10983027;32;20343;-73
2022/03/17 02:02:10;;;;;;;39.10;30.08;;;12.40;73.60;;;;;;10982691;32;20034;-72
2022/03/17 02:08:15;;;;;;;31.27;26.37;;;12.50;73.50;;;;;;10982639;32;20354;-72
2022/03/17 02:14:34;;;;;;;49.20;40.83;;;12.50;73.40;;;;;;10982259;32;20043;-73
2022/03/17 02:20:37;;;;;;;41.50;33.88;;;12.50;73.30;;;;;;10968544;32;20045;-72
2022/03/17 02:26:39;;;;;;;40.22;30.77;;;12.50;73.60;;;;;;10981596;32;20026;-72
2022/03/17 02:32:42;;;;;;;46.88;37.05;;;12.50;73.50;;;;;;10977525;32;20428;-72
2022/03/17 02:39:08;;;;;;;53.53;40.08;;;12.50;73.50;;;;;;10979230;32;20053;-72
2022/03/17 02:45:11;;;;;;;32.88;23.77;;;12.50;73.40;;;;;;10981099;32;20053;-72
2022/03/17 02:51:13;;;;;;;46.45;39.22;;;12.50;73.50;;;;;;10967529;32;20049;-72
2022/03/17 02:57:16;;;;;;;39.00;32.63;;;12.50;73.70;;;;;;10980017;32;20053;-72
2022/03/17 03:03:18;;;;;;;44.25;35.90;;;12.50;73.80;;;;;;10979188;32;20035;-72
2022/03/17 03:09:20;;;;;;;41.03;28.35;;;12.40;73.70;;;;;;10977183;32;20018;-72
2022/03/17 03:15:23;;;;;;;33.50;25.90;;;12.40;73.90;;;;;;10980168;32;20030;-72
2022/03/17 03:21:24;;;;;;;36.55;30.98;;;12.50;74.10;;;;;;10979964;32;20420;-72
2022/03/17 03:27:27;;;;;;;22.27;18.15;;;12.40;74.20;;;;;;10979971;32;20326;-72
2022/03/17 03:33:29;;;;;;;28.20;22.25;;;12.30;74.50;;;;;;10975498;32;20315;-72
2022/03/17 03:39:33;;;;;;;38.47;31.35;;;12.30;74.70;;;;;;10979736;32;20391;-72
2022/03/17 03:45:35;;;;;;;43.72;33.85;;;12.30;74.90;;;;;;10979425;32;20394;-72
2022/03/17 03:51:37;;;;;;;39.83;29.02;;;12.20;75.10;;;;;;10975938;32;20085;-72
2022/03/17 03:57:39;;;;;;;29.70;22.85;;;12.20;75.50;;;;;;10977144;32;20035;-72
2022/03/17 04:03:42;;;;;;;28.40;20.17;;;12.10;75.60;;;;;;10965689;32;20041;-72
2022/03/17 04:10:01;;;;;;;33.90;24.17;;;12.20;75.40;;;;;;10980658;32;20033;-72
2022/03/17 04:16:03;;;;;;;31.85;25.80;;;12.20;75.70;;;;;;10983513;32;20031;-72
2022/03/17 04:22:05;;;;;;;30.73;19.20;;;12.20;75.60;;;;;;10986343;32;20022;-72
2022/03/17 04:28:09;;;;;;;36.90;28.87;;;12.20;75.40;;;;;;10969080;32;20062;-73
2022/03/17 04:34:12;;;;;;;33.47;23.10;;;12.20;75.30;;;;;;10985106;32;20031;-72
2022/03/17 04:40:14;;;;;;;27.83;20.62;;;12.20;75.20;;;;;;10985659;32;20031;-72
2022/03/17 04:46:16;;;;;;;32.55;25.58;;;12.20;75.20;;;;;;10985573;32;20023;-72
2022/03/17 04:58:42;;;;;;;32.88;25.23;;;12.20;75.00;;;;;;10983166;32;20045;-72
2022/03/17 05:04:44;;;;;;;31.40;21.73;;;12.20;75.10;;;;;;10971453;32;20026;-72
2022/03/17 05:10:47;;;;;;;39.25;29.23;;;12.30;75.10;;;;;;10984643;32;20035;-72
2022/03/17 05:16:49;;;;;;;30.00;23.95;;;12.30;75.10;;;;;;10980152;32;20031;-72
2022/03/17 05:22:52;;;;;;;31.35;22.37;;;12.30;75.10;;;;;;10979807;32;20330;-72
2022/03/17 05:28:54;;;;;;;30.70;22.85;;;12.30;75.20;;;;;;10981858;32;20334;-72
2022/03/17 05:34:56;;;;;;;31.87;20.65;;;12.30;75.10;;;;;;10970391;32;20371;-72
2022/03/17 05:40:58;;;;;;;25.98;17.67;;;12.30;75.10;;;;;;10983578;32;20038;-72
2022/03/17 05:47:01;;;;;;;18.23;14.15;;;12.30;75.00;;;;;;10983213;32;20039;-72
2022/03/17 05:53:05;;;;;;;32.70;24.48;;;12.20;75.10;;;;;;10982560;32;20378;-72
2022/03/17 05:59:16;;;;;;;32.55;22.98;;;12.30;75.00;;;;;;10982856;32;20076;-72
2022/03/17 06:05:19;;;;;;;30.02;23.08;;;12.40;74.90;;;;;;10982620;32;20030;-72
2022/03/17 06:11:21;;;;;;;27.20;20.83;;;12.50;74.80;;;;;;10982331;32;20026;-72
2022/03/17 06:17:38;;;;;;;38.67;30.45;;;12.50;74.60;;;;;;10981924;32;20061;-72
2022/03/17 06:23:40;;;;;;;38.13;25.23;;;12.70;74.60;;;;;;10981993;32;20023;-72
2022/03/17 06:29:43;;;;;;;32.15;23.58;;;12.80;74.30;;;;;;10981648;32;20034;-72
2022/03/17 06:35:46;;;;;;;24.02;18.62;;;12.80;74.30;;;;;;10981590;32;20022;-73
2022/03/17 06:41:50;;;;;;;29.27;19.15;;;12.90;74.20;;;;;;10981234;32;20038;-72
2022/03/17 06:47:54;;;;;;;31.58;26.00;;;13.00;74.00;;;;;;10979499;32;20061;-72
2022/03/17 06:53:56;;;;;;;32.92;24.87;;;13.10;74.00;;;;;;10981088;32;20042;-72
2022/03/17 06:59:59;;;;;;;32.30;24.98;;;13.20;73.90;;;;;;10980785;32;20031;-72
2022/03/17 07:06:01;;;;;;;34.22;28.48;;;13.40;73.60;;;;;;10978146;32;20065;-72
2022/03/17 07:12:04;;;;;;;35.42;24.60;;;13.60;73.30;;;;;;10977055;32;20043;-73
2022/03/17 07:18:06;;;;;;;26.83;21.25;;;13.70;73.20;;;;;;10974004;27;20023;-71
2022/03/17 07:24:09;;;;;;;23.42;17.45;;;13.80;73.00;;;;;;10979387;32;20073;-71
2022/03/17 07:30:18;;;;;;;24.50;18.23;;;13.90;72.90;;;;;;11017469;32;20056;-72
2022/03/17 07:36:21;;;;;;;30.33;20.95;;;14.00;72.80;;;;;;11015986;32;20035;-72
2022/03/17 07:42:23;;;;;;;35.28;28.17;;;14.20;72.50;;;;;;11001559;32;20022;-72
2022/03/17 07:48:27;;;;;;;21.65;17.10;;;14.20;72.20;;;;;;11018961;32;20050;-72
2022/03/17 07:54:30;;;;;;;24.83;20.42;;;14.40;72.20;;;;;;11015844;32;20040;-73
2022/03/17 08:00:33;;;;;;;21.92;16.52;;;14.40;72.20;;;;;;11001086;32;20026;-72
2022/03/17 08:06:36;;;;;;;27.23;21.85;;;14.40;72.20;;;;;;11018567;32;20048;-72
2022/03/17 08:12:38;;;;;;;19.23;15.27;;;14.50;72.00;;;;;;11014516;32;20126;-72
2022/03/17 08:18:41;;;;;;;19.45;16.15;;;14.30;72.20;;;;;;11013774;32;20018;-72
2022/03/17 08:24:43;;;;;;;21.95;14.70;;;14.40;72.30;;;;;;11004739;32;20053;-72
2022/03/17 08:30:47;;;;;;;24.30;15.88;;;14.40;72.10;;;;;;11001903;32;20022;-72
2022/03/17 08:36:54;;;;;;;21.05;15.02;;;14.50;72.00;;;;;;11001602;32;20026;-72
2022/03/17 08:42:56;;;;;;;53.22;37.35;;;14.40;72.10;;;;;;10966384;32;20018;-72
2022/03/17 08:55:20;;;;;;;31.50;24.15;;;14.20;72.00;;;;;;10980857;32;20042;-72
2022/03/17 09:01:22;;;;;;;17.75;14.50;;;14.00;72.30;;;;;;10971608;32;20046;-72
2022/03/17 09:07:24;;;;;;;27.10;20.45;;;14.00;72.40;;;;;;10984309;32;20045;-72
2022/03/17 09:13:28;;;;;;;37.10;28.92;;;14.10;72.20;;;;;;10983414;32;20023;-72
2022/03/17 09:19:32;;;;;;;23.12;17.73;;;14.00;71.90;;;;;;10985312;32;20045;-72
2022/03/17 09:25:35;;;;;;;38.33;26.87;;;14.00;71.60;;;;;;10981170;32;20437;-72
2022/03/17 09:31:37;;;;;;;24.27;19.70;;;14.20;72.00;;;;;;10981301;32;20045;-72
2022/03/17 09:37:41;;;;;;;21.85;15.23;;;14.20;71.50;;;;;;10984818;32;20022;-72
2022/03/17 09:43:43;;;;;;;21.75;17.98;;;14.20;71.60;;;;;;10971316;32;20049;-72
2022/03/17 09:49:49;;;;;;;20.08;15.35;;;14.20;71.60;;;;;;10980149;32;20026;-72
2022/03/17 09:55:52;;;;;;;20.05;16.35;;;14.30;71.10;;;;;;10984111;32;20037;-72
2022/03/17 10:01:54;;;;;;;18.77;15.07;;;14.40;71.10;;;;;;10994935;32;20374;-72
2022/03/17 10:07:57;;;;;;;18.00;13.90;;;14.50;70.90;;;;;;11017215;32;20080;-72
2022/03/17 10:14:00;;;;;;;17.05;12.80;;;14.60;70.90;;;;;;11017571;32;20057;-72
2022/03/17 10:20:12;;;;;;;20.08;14.68;;;14.70;71.20;;;;;;11021108;32;20052;-72
2022/03/17 10:26:40;;;;;;;20.00;14.05;;;14.80;71.00;;;;;;11016046;32;20054;-72
2022/03/17 10:32:57;;;;;;;42.60;16.98;;;14.90;70.50;;;;;;11019835;32;20022;-72
2022/03/17 10:38:59;;;;;;;37.53;17.23;;;15.10;69.70;;;;;;11018178;32;20048;-72
2022/03/17 10:45:06;;;;;;;17.73;14.57;;;15.20;69.60;;;;;;11019398;32;20052;-72
2022/03/17 10:51:08;;;;;;;19.83;13.68;;;15.50;69.60;;;;;;11018777;32;20418;-72
2022/03/17 10:57:12;;;;;;;16.75;10.00;;;15.50;68.50;;;;;;11018852;32;20014;-72
2022/03/17 11:03:35;;;;;;;16.60;12.82;;;15.60;68.30;;;;;;11017995;32;20027;-72
2022/03/17 11:09:51;;;;;;;15.32;10.60;;;15.70;67.50;;;;;;11012583;32;20060;-72
2022/03/17 11:16:05;;;;;;;16.20;10.82;;;15.70;67.70;;;;;;11014912;32;20061;-72
2022/03/17 11:22:10;;;;;;;14.75;9.90;;;15.80;67.90;;;;;;11017836;32;20318;-72
2022/03/17 11:28:13;;;;;;;13.77;10.45;;;15.80;67.90;;;;;;11014840;32;20022;-72
2022/03/17 11:34:38;;;;;;;13.35;11.93;;;16.10;68.00;;;;;;11017899;32;20026;-72
2022/03/17 11:41:10;;;;;;;14.73;13.05;;;16.10;66.90;;;;;;11015698;32;20049;-72
2022/03/17 11:47:27;;;;;;;15.10;11.50;;;16.30;67.10;;;;;;11014062;32;20060;-72
2022/03/17 11:53:49;;;;;;;25.15;20.08;;;16.50;66.80;;;;;;11014066;32;20018;-72
2022/03/17 11:59:59;;;;;;;16.67;13.23;;;16.50;65.90;;;;;;11016522;32;20052;-72
2022/03/17 12:06:12;;;;;;;18.67;15.13;;;16.50;65.90;;;;;;11013349;32;20027;-71
2022/03/17 12:12:25;;;;;;;14.68;10.13;;;16.70;66.00;;;;;;11016678;32;20022;-71
2022/03/17 12:18:28;;;;;;;17.08;12.20;;;16.80;66.20;;;;;;11016547;32;20398;-72
2022/03/17 12:24:35;;;;;;;16.70;12.00;;;16.80;64.50;;;;;;11016199;32;20307;-72
2022/03/17 12:30:38;;;;;;;12.80;9.23;;;17.00;65.00;;;;;;11020779;32;20288;-72
2022/03/17 12:36:46;;;;;;;17.58;13.68;;;17.00;63.20;;;;;;11010686;32;20019;-72
2022/03/17 12:42:50;;;;;;;11.40;8.57;;;17.00;62.50;;;;;;11009286;32;20438;-72
2022/03/17 12:49:21;;;;;;;14.75;10.90;;;17.10;63.10;;;;;;10985578;32;20141;-71
2022/03/17 12:55:23;;;;;;;16.10;11.80;;;17.30;63.40;;;;;;10983192;32;20023;-72
2022/03/17 13:01:25;;;;;;;12.45;9.02;;;17.50;64.00;;;;;;10982762;32;20030;-72
2022/03/17 13:07:27;;;;;;;16.37;11.30;;;17.50;63.60;;;;;;10984745;32;20351;-72
2022/03/17 13:19:51;;;;;;;11.02;7.78;;;17.60;64.10;;;;;;10984657;32;20041;-71
2022/03/17 13:25:59;;;;;;;21.27;11.45;;;17.70;64.40;;;;;;10984404;32;20034;-71
2022/03/17 13:32:03;;;;;;;15.63;11.20;;;17.60;63.60;;;;;;10970996;32;20026;-71
2022/03/17 13:38:08;;;;;;;11.23;9.27;;;17.60;64.30;;;;;;10984630;32;20026;-71
2022/03/17 13:44:13;;;;;;;9.43;6.97;;;17.70;64.40;;;;;;10966148;32;20053;-71
2022/03/17 13:50:15;;;;;;;18.67;13.50;;;17.80;64.50;;;;;;10970680;32;20349;-72
2022/03/17 13:56:27;;;;;;;12.95;9.75;;;17.60;63.50;;;;;;10979019;32;20027;-72
2022/03/17 14:02:29;;;;;;;13.80;8.48;;;17.30;63.90;;;;;;10978788;32;20054;-72
2022/03/17 14:08:33;;;;;;;12.73;9.60;;;17.40;65.00;;;;;;10982893;32;20023;-71
2022/03/17 14:14:36;;;;;;;10.73;9.30;;;17.70;64.90;;;;;;10982465;32;20026;-71
2022/03/17 14:20:38;;;;;;;14.38;8.68;;;17.80;65.00;;;;;;10977798;32;20054;-69
2022/03/17 14:26:48;;;;;;;13.95;11.10;;;18.00;64.70;;;;;;10981780;32;20023;-68
2022/03/17 14:32:50;;;;;;;19.05;11.10;;;18.00;63.70;;;;;;10977038;32;20061;-68
2022/03/17 14:38:52;;;;;;;12.60;10.38;;;18.10;64.20;;;;;;10981296;32;20026;-68
2022/03/17 14:44:54;;;;;;;17.73;14.15;;;18.30;63.30;;;;;;10964757;32;20053;-68
2022/03/17 14:51:00;;;;;;;14.50;11.90;;;18.30;62.30;;;;;;10985207;32;20358;-69
2022/03/17 14:57:03;;;;;;;12.88;10.38;;;18.30;62.70;;;;;;11013752;32;20057;-69
2022/03/17 15:03:05;;;;;;;17.98;9.15;;;18.30;63.20;;;;;;11016223;32;20037;-69
2022/03/17 15:09:07;;;;;;;16.73;11.73;;;18.20;63.00;;;;;;11017923;32;20068;-68
2022/03/17 15:15:11;;;;;;;9.00;7.37;;;17.90;62.10;;;;;;11017058;32;20058;-69
2022/03/17 15:21:14;;;;;;;20.08;15.13;;;17.80;63.00;;;;;;10484813;26;13159723;-69
2022/03/17 15:33:37;;;;;;;11.88;8.57;;;17.70;63.30;;;;;;10863812;32;20032;-69
2022/03/17 15:39:39;;;;;;;9.45;7.03;;;17.80;64.00;;;;;;10863280;32;20355;-69
2022/03/17 15:45:42;;;;;;;11.25;8.15;;;17.90;64.00;;;;;;10889727;32;20372;-69
2022/03/17 15:51:45;;;;;;;13.27;9.13;;;17.80;64.10;;;;;;10890408;32;20049;-69
2022/03/17 15:57:47;;;;;;;14.75;9.45;;;17.80;64.50;;;;;;10902944;32;20036;-69
2022/03/17 16:03:50;;;;;;;11.55;7.62;;;17.80;64.80;;;;;;10904113;32;20070;-69
2022/03/17 16:16:14;;;;;;;15.25;9.52;;;17.80;65.20;;;;;;10908366;32;20066;-69
2022/03/17 16:28:47;;;;;;;11.82;9.15;;;17.70;65.80;;;;;;10910782;32;20019;-69
2022/03/17 16:34:50;;;;;;;13.13;9.68;;;17.70;66.00;;;;;;10910491;32;20403;-69
2022/03/17 16:40:52;;;;;;;12.23;8.70;;;17.60;66.10;;;;;;10910258;32;20049;-69
2022/03/17 16:46:58;;;;;;;12.65;8.68;;;17.50;66.30;;;;;;10906502;32;20442;-69
2022/03/17 16:53:00;;;;;;;12.25;8.77;;;17.50;66.40;;;;;;10909818;32;20023;-69
2022/03/17 16:59:02;;;;;;;13.52;9.50;;;17.30;66.50;;;;;;10909617;32;20027;-69
2022/03/17 17:05:14;;;;;;;14.35;10.02;;;17.30;66.70;;;;;;10909472;32;20027;-69
2022/03/17 17:11:17;;;;;;;12.15;8.02;;;17.20;66.70;;;;;;10909116;32;20031;-69
2022/03/17 17:17:32;;;;;;;14.70;11.35;;;17.10;66.80;;;;;;10894899;32;20465;-68
2022/03/17 17:36:19;;;;;;;12.80;10.20;;;16.80;67.30;;;;;;10829867;32;20024;-69
2022/03/17 17:42:21;;;;;;;14.00;10.05;;;16.70;67.50;;;;;;10829649;32;20024;-68
2022/03/17 17:48:54;;;;;;;12.27;9.98;;;16.60;67.50;;;;;;10817604;32;20082;-68
2022/03/17 17:54:56;;;;;;;12.07;9.65;;;16.50;67.60;;;;;;10829249;32;20058;-68
2022/03/17 18:01:40;;;;;;;13.45;11.15;;;16.30;67.70;;;;;;10829528;32;20066;-68
2022/03/17 18:07:42;;;;;;;13.38;10.65;;;16.30;67.80;;;;;;10756201;32;20055;-68
2022/03/17 18:13:45;;;;;;;18.37;12.98;;;16.20;68.00;;;;;;10781455;32;20049;-68
2022/03/17 18:19:48;;;;;;;15.02;12.50;;;16.20;67.90;;;;;;10785536;33;20397;-68
2022/03/17 18:25:53;;;;;;;19.17;12.23;;;16.10;68.10;;;;;;10790219;33;20044;-69
2022/03/17 18:31:58;;;;;;;20.35;16.70;;;16.10;68.40;;;;;;10792101;33;20047;-68
2022/03/17 18:38:05;;;;;;;17.30;13.98;;;16.00;68.30;;;;;;10790693;33;20083;-69
2022/03/17 18:44:07;;;;;;;22.08;16.62;;;16.00;68.20;;;;;;10880920;32;20054;-68
2022/03/17 18:50:11;;;;;;;20.60;17.10;;;15.90;68.30;;;;;;10905833;32;20070;-68
2022/03/17 18:56:13;;;;;;;21.62;17.67;;;15.80;68.50;;;;;;10905564;32;20054;-68
2022/03/17 19:02:21;;;;;;;19.62;16.87;;;15.80;68.50;;;;;;10891837;32;20031;-68
2022/03/17 19:08:23;;;;;;;20.10;17.75;;;15.70;68.60;;;;;;10891961;32;20027;-68
2022/03/17 19:14:27;;;;;;;27.55;22.50;;;15.70;68.80;;;;;;10905062;32;20336;-69
2022/03/17 19:20:30;;;;;;;23.45;15.88;;;15.70;68.90;;;;;;10904872;32;20050;-68
2022/03/17 19:26:32;;;;;;;22.30;14.25;;;15.60;69.10;;;;;;10891408;32;20050;-69
2022/03/17 19:32:56;;;;;;;21.87;16.50;;;15.50;69.20;;;;;;10903244;32;20068;-69
2022/03/17 19:38:59;;;;;;;19.37;15.27;;;15.50;69.40;;;;;;10889637;32;20039;-69
2022/03/17 19:45:01;;;;;;;23.17;19.52;;;15.50;69.30;;;;;;10903770;32;20035;-69
2022/03/17 19:51:03;;;;;;;21.02;13.35;;;15.40;69.40;;;;;;10890804;32;20019;-69
2022/03/17 19:57:06;;;;;;;16.25;11.85;;;15.30;69.70;;;;;;10903191;32;20117;-69
2022/03/17 20:03:08;;;;;;;20.85;12.50;;;15.30;69.40;;;;;;10903965;32;20057;-69
2022/03/17 20:09:10;;;;;;;13.75;10.35;;;15.30;69.80;;;;;;10890465;32;20020;-68
2022/03/17 20:15:12;;;;;;;10.98;8.77;;;15.30;70.10;;;;;;10904199;32;20020;-72
2022/03/17 20:21:17;;;;;;;13.50;9.23;;;15.30;70.10;;;;;;10904188;32;20065;-72
2022/03/17 20:27:19;;;;;;;13.45;11.27;;;15.30;70.30;;;;;;10902211;32;20335;-72
2022/03/17 20:33:23;;;;;;;13.82;10.23;;;15.20;70.20;;;;;;10901081;32;20165;-72
2022/03/17 20:39:25;;;;;;;11.60;7.93;;;15.20;70.20;;;;;;10903837;32;20032;-72
2022/03/17 20:45:28;;;;;;;11.15;7.37;;;15.10;70.10;;;;;;10890408;32;20330;-72
2022/03/17 20:51:32;;;;;;;11.80;8.18;;;15.10;70.60;;;;;;10903186;32;20324;-72
2022/03/17 20:57:34;;;;;;;7.12;5.68;;;15.10;70.50;;;;;;10896605;32;20031;-72
2022/03/17 21:03:36;;;;;;;7.87;5.47;;;15.20;70.80;;;;;;10909848;32;20036;-68
2022/03/17 21:09:38;;;;;;;9.75;8.20;;;15.00;70.70;;;;;;10909396;32;20019;-69
2022/03/17 21:15:42;;;;;;;7.97;6.07;;;15.00;71.10;;;;;;10909242;32;20391;-68
2022/03/17 21:22:12;;;;;;;10.50;7.30;;;15.00;71.10;;;;;;10909116;32;20050;-68
2022/03/17 21:28:14;;;;;;;11.55;7.57;;;15.00;70.90;;;;;;10908890;32;20039;-68
2022/03/17 21:34:20;;;;;;;9.25;7.25;;;14.90;71.40;;;;;;10895240;32;20042;-68
2022/03/17 21:40:22;;;;;;;14.50;9.18;;;14.90;71.50;;;;;;10908629;32;20319;-69
2022/03/17 21:46:24;;;;;;;13.57;8.38;;;15.00;71.80;;;;;;10908044;32;20301;-68
2022/03/17 21:52:27;;;;;;;8.88;7.55;;;15.00;71.70;;;;;;10908036;32;20036;-68
2022/03/17 21:58:29;;;;;;;14.10;8.35;;;15.00;71.80;;;;;;10907781;32;20016;-68
2022/03/17 22:04:32;;;;;;;11.50;9.32;;;15.00;71.90;;;;;;10906924;32;20327;-68
2022/03/17 22:10:34;;;;;;;11.65;8.45;;;14.90;71.50;;;;;;10904316;32;20197;-68
2022/03/17 22:16:36;;;;;;;12.35;8.57;;;14.90;72.00;;;;;;10906999;32;20054;-68
2022/03/17 22:22:41;;;;;;;14.48;9.50;;;14.80;72.10;;;;;;10906996;32;20042;-68
2022/03/17 22:28:43;;;;;;;14.57;10.75;;;14.80;72.00;;;;;;10906386;32;20034;-68
2022/03/17 22:34:45;;;;;;;13.27;9.07;;;14.80;72.20;;;;;;10905949;32;20332;-68
2022/03/17 22:47:09;;;;;;;13.77;10.50;;;14.80;72.30;;;;;;10905956;32;20031;-68
2022/03/17 22:53:12;;;;;;;10.80;8.30;;;14.70;72.40;;;;;;10905792;32;20065;-68
2022/03/17 22:59:16;;;;;;;11.15;9.60;;;14.70;72.60;;;;;;10905572;32;20024;-68
2022/03/17 23:05:18;;;;;;;11.07;8.25;;;14.70;72.80;;;;;;10905415;32;20416;-68
2022/03/17 23:11:20;;;;;;;11.35;8.93;;;14.70;72.50;;;;;;10902627;32;20086;-68
2022/03/17 23:17:22;;;;;;;12.57;9.82;;;14.70;72.50;;;;;;10934948;27;20029;-68
2022/03/17 23:23:24;;;;;;;15.20;10.38;;;14.70;72.10;;;;;;11018190;32;20026;-68
2022/03/17 23:29:26;;;;;;;11.20;8.45;;;14.70;72.20;;;;;;11015535;32;20022;-68
2022/03/17 23:35:29;;;;;;;13.80;10.32;;;14.70;72.20;;;;;;11003524;32;20010;-68
2022/03/17 23:41:32;;;;;;;12.85;9.75;;;14.70;72.20;;;;;;11017837;32;20029;-68
2022/03/17 23:47:34;;;;;;;13.68;10.90;;;14.70;71.80;;;;;;11004146;32;20034;-68
2022/03/17 23:53:39;;;;;;;10.75;9.45;;;14.60;71.90;;;;;;11017573;32;20023;-68
2022/03/17 23:59:41;;;;;;;15.85;11.20;;;14.60;71.70;;;;;;11017488;32;20026;-68
